createdAt,value
2022-12-19T00:02:31.178Z,101640.41
2022-12-19T00:05:04.171Z,101650.75
2022-12-19T00:07:36.944Z,101640.41
2022-12-19T00:10:11.949Z,101646.31
2022-12-19T00:12:44.523Z,101646.28
2022-12-19T00:15:17.581Z,101640.16
2022-12-19T00:17:50.364Z,101636.63
2022-12-19T00:20:23.360Z,101633.09
2022-12-19T00:22:56.252Z,101630.41
2022-12-19T00:25:30.378Z,101626.81
2022-12-19T00:28:03.170Z,101629.53
2022-12-19T00:30:35.944Z,101621.56
2022-12-19T00:33:08.694Z,101608.41
2022-12-19T00:35:41.435Z,101605.84
2022-12-19T00:38:16.713Z,101618.00
2022-12-19T00:40:51.066Z,101605.84
2022-12-19T00:43:23.871Z,101603.31
2022-12-19T00:45:56.869Z,101588.19
2022-12-19T00:48:30.759Z,101597.72
2022-12-19T00:51:06.789Z,101592.41
2022-12-19T00:53:40.430Z,101597.66
2022-12-19T00:56:16.439Z,101594.00
2022-12-19T00:58:50.051Z,101595.72
2022-12-19T01:01:24.496Z,101594.81
2022-12-19T01:04:27.276Z,101585.44
2022-12-19T01:06:52.059Z,101603.50
2022-12-19T01:09:24.981Z,101592.13
2022-12-19T01:12:16.909Z,101573.84
2022-12-19T01:14:49.724Z,101591.84
2022-12-19T01:17:22.583Z,101578.69
2022-12-19T01:19:58.822Z,101574.34
2022-12-19T01:22:31.684Z,101572.41
2022-12-19T01:25:04.902Z,101558.47
2022-12-19T01:27:39.301Z,101558.47
2022-12-19T01:30:13.791Z,101558.22
2022-12-19T01:32:46.703Z,101541.56
2022-12-19T01:35:21.647Z,101547.53
2022-12-19T01:38:07.805Z,101547.41
2022-12-19T01:40:50.910Z,101544.56
2022-12-19T01:43:30.541Z,101536.63
2022-12-19T01:46:05.439Z,101535.47
2022-12-19T01:48:39.785Z,101543.09
2022-12-19T01:51:16.748Z,101519.06
2022-12-19T01:53:52.009Z,101524.75
2022-12-19T01:56:28.940Z,101528.97
2022-12-19T01:59:08.519Z,101524.84
2022-12-19T02:01:51.105Z,101508.00
2022-12-19T02:04:32.615Z,101477.59
2022-12-19T02:07:11.603Z,101493.97
2022-12-19T02:09:56.906Z,101492.03
2022-12-19T02:12:35.478Z,101495.44
2022-12-19T02:15:14.614Z,101489.06
2022-12-19T02:18:01.049Z,101484.75
2022-12-19T02:21:15.528Z,101471.66
2022-12-19T02:24:13.043Z,101465.34
2022-12-19T02:27:07.417Z,101449.63
2022-12-19T02:29:55.799Z,101441.31
2022-12-19T02:32:36.199Z,101428.28
2022-12-19T02:35:18.101Z,101423.81
2022-12-19T02:37:56.570Z,101428.06
2022-12-19T02:40:36.102Z,101427.47
2022-12-19T02:43:11.527Z,101434.97
2022-12-19T02:45:46.184Z,101435.53
2022-12-19T02:48:21.082Z,101429.28
2022-12-19T02:50:53.913Z,101429.94
2022-12-19T02:53:26.777Z,101417.84
2022-12-19T02:56:19.253Z,101424.59
2022-12-19T02:59:09.917Z,101430.78
2022-12-19T03:01:48.854Z,101402.66
2022-12-19T03:04:36.043Z,101408.56
2022-12-19T03:07:20.294Z,101410.03
2022-12-19T03:10:04.289Z,101413.56
2022-12-19T03:12:43.105Z,101404.88
2022-12-19T03:15:17.132Z,101409.78
2022-12-19T03:17:50.549Z,101408.81
2022-12-19T03:20:29.814Z,101413.81
2022-12-19T03:23:03.006Z,101405.97
2022-12-19T03:25:36.995Z,101398.25
2022-12-19T03:28:13.596Z,101384.66
2022-12-19T03:30:47.763Z,101404.75
2022-12-19T03:33:23.350Z,101392.97
2022-12-19T03:36:00.213Z,101393.13
2022-12-19T03:38:34.827Z,101400.81
2022-12-19T03:41:11.801Z,101386.84
2022-12-19T03:43:45.652Z,101392.00
2022-12-19T03:46:26.873Z,101373.75
2022-12-19T03:48:59.723Z,101374.22
2022-12-19T03:51:43.907Z,101365.53
2022-12-19T03:54:20.748Z,101375.84
2022-12-19T03:57:03.126Z,101363.59
2022-12-19T03:59:42.317Z,101359.97
2022-12-19T04:02:17.525Z,101360.72
2022-12-19T04:04:55.202Z,101353.72
2022-12-19T04:07:29.691Z,101346.84
2022-12-19T04:10:06.500Z,101346.47
2022-12-19T04:12:41.996Z,101349.78
2022-12-19T04:15:16.307Z,101338.47
2022-12-19T04:17:54.318Z,101341.66
2022-12-19T04:20:31.120Z,101328.81
2022-12-19T04:23:09.582Z,101333.22
2022-12-19T04:25:46.771Z,101329.31
2022-12-19T04:28:26.516Z,101330.91
2022-12-19T04:31:00.823Z,101335.81
2022-12-19T04:33:36.654Z,101322.88
2022-12-19T04:36:11.479Z,101321.75
2022-12-19T04:38:45.875Z,101316.72
2022-12-19T04:41:18.713Z,101310.84
2022-12-19T04:43:51.557Z,101316.81
2022-12-19T04:46:24.406Z,101320.81
2022-12-19T04:48:57.358Z,101316.06
2022-12-19T04:51:30.404Z,101273.69
2022-12-19T04:54:05.091Z,101307.16
2022-12-19T04:56:38.034Z,101316.22
2022-12-19T04:59:11.065Z,101310.88
2022-12-19T05:01:44.151Z,101306.19
2022-12-19T05:04:17.039Z,101300.84
2022-12-19T05:06:50.188Z,101288.41
2022-12-19T05:09:24.379Z,101296.69
2022-12-19T05:11:57.470Z,101288.16
2022-12-19T05:14:30.863Z,101283.59
2022-12-19T05:17:04.265Z,101284.16
2022-12-19T05:19:37.282Z,101284.00
2022-12-19T05:22:10.110Z,101267.81
2022-12-19T05:24:44.704Z,101285.28
2022-12-19T05:27:17.478Z,101286.53
2022-12-19T05:29:50.332Z,101289.38
2022-12-19T05:32:23.123Z,101287.50
2022-12-19T05:34:55.942Z,101297.94
2022-12-19T05:37:28.847Z,101290.97
2022-12-19T05:40:03.215Z,101285.38
2022-12-19T05:42:36.093Z,101268.13
2022-12-19T05:45:09.989Z,101278.38
2022-12-19T05:47:43.973Z,101272.03
2022-12-19T05:50:18.158Z,101293.34
2022-12-19T05:52:57.117Z,101291.44
2022-12-19T05:55:31.493Z,101294.00
2022-12-19T05:58:04.690Z,101284.84
2022-12-19T06:00:37.992Z,101282.41
2022-12-19T06:03:11.052Z,101282.84
2022-12-19T06:05:44.022Z,101273.00
2022-12-19T06:08:17.204Z,101273.00
2022-12-19T06:10:51.448Z,101278.47
2022-12-19T06:13:25.182Z,101290.94
2022-12-19T06:15:59.650Z,101284.25
2022-12-19T06:18:33.061Z,101292.66
2022-12-19T06:21:07.773Z,101283.72
2022-12-19T06:23:40.722Z,101278.38
2022-12-19T06:26:19.503Z,101271.44
2022-12-19T06:28:53.862Z,101282.13
2022-12-19T06:31:26.842Z,101261.97
2022-12-19T06:34:00.171Z,101273.25
2022-12-19T06:36:33.097Z,101254.91
2022-12-19T06:39:06.193Z,101264.16
2022-12-19T06:41:58.301Z,101254.75
2022-12-19T06:44:32.650Z,101262.69
2022-12-19T06:47:05.768Z,101253.34
2022-12-19T06:49:38.609Z,101260.66
2022-12-19T06:52:11.479Z,101266.09
2022-12-19T06:54:44.359Z,101240.97
2022-12-19T06:57:18.566Z,101264.25
2022-12-19T06:59:51.376Z,101253.50
2022-12-19T07:02:30.886Z,101268.25
2022-12-19T07:05:06.347Z,101262.19
2022-12-19T07:07:39.560Z,101251.00
2022-12-19T07:10:12.695Z,101254.72
2022-12-19T07:12:47.091Z,101259.06
2022-12-19T07:15:20.297Z,101258.22
2022-12-19T07:17:54.049Z,101273.94
2022-12-19T07:20:27.993Z,101262.66
2022-12-19T07:23:01.079Z,101268.22
2022-12-19T07:25:34.147Z,101272.44
2022-12-19T07:28:09.933Z,101256.66
2022-12-19T07:30:43.726Z,101278.63
2022-12-19T07:33:21.256Z,101276.13
2022-12-19T07:35:54.827Z,101276.31
2022-12-19T07:38:27.909Z,101269.94
2022-12-19T07:41:02.158Z,101276.94
2022-12-19T07:43:36.416Z,101278.31
2022-12-19T07:46:09.337Z,101269.25
2022-12-19T07:48:42.602Z,101268.56
2022-12-19T07:51:15.498Z,101277.59
2022-12-19T07:53:48.630Z,101275.25
2022-12-19T07:56:21.503Z,101272.47
2022-12-19T07:58:56.416Z,101286.69
2022-12-19T08:01:29.816Z,101282.63
2022-12-19T08:04:03.128Z,101286.16
2022-12-19T08:06:40.829Z,101291.25
2022-12-19T08:09:14.774Z,101292.88
2022-12-19T08:11:48.212Z,101295.09
2022-12-19T08:14:24.301Z,101290.31
2022-12-19T08:17:19.846Z,101303.56
2022-12-19T08:19:50.227Z,101292.28
2022-12-19T08:22:24.155Z,101275.88
2022-12-19T08:24:58.300Z,101301.16
2022-12-19T08:27:31.236Z,101293.06
2022-12-19T08:30:06.605Z,101295.97
2022-12-19T08:32:41.993Z,101285.03
2022-12-19T08:35:15.203Z,101270.50
2022-12-19T08:37:48.141Z,101287.91
2022-12-19T08:40:21.846Z,101291.59
2022-12-19T08:42:54.986Z,101301.09
2022-12-19T08:45:29.805Z,101294.59
2022-12-19T08:48:03.511Z,101295.97
2022-12-19T08:50:36.356Z,101294.34
2022-12-19T08:53:09.590Z,101298.34
2022-12-19T08:55:42.454Z,101287.25
2022-12-19T08:58:15.613Z,101306.56
2022-12-19T09:00:57.665Z,101304.78
2022-12-19T09:03:56.143Z,101314.53
2022-12-19T09:06:28.683Z,101306.13
2022-12-19T09:09:01.918Z,101310.06
2022-12-19T09:11:36.206Z,101300.22
2022-12-19T09:14:21.784Z,101295.25
2022-12-19T09:16:56.546Z,101312.72
2022-12-19T09:19:32.469Z,101305.34
2022-12-19T09:22:05.812Z,101297.81
2022-12-19T09:24:38.832Z,101288.09
2022-12-19T09:27:11.878Z,101299.88
2022-12-19T09:29:44.895Z,101299.72
2022-12-19T09:32:19.503Z,101297.81
2022-12-19T09:34:55.735Z,101302.16
2022-12-19T09:37:29.192Z,101301.50
2022-12-19T09:40:02.291Z,101308.53
2022-12-19T09:43:02.013Z,101309.38
2022-12-19T09:45:46.031Z,101307.59
2022-12-19T09:48:24.642Z,101304.31
2022-12-19T09:51:09.560Z,101309.13
2022-12-19T09:53:58.252Z,101293.38
2022-12-19T09:56:45.494Z,101291.72
2022-12-19T09:59:41.133Z,101295.06
2022-12-19T10:02:29.671Z,101309.75
2022-12-19T10:05:21.104Z,101299.16
2022-12-19T10:08:25.138Z,101306.28
2022-12-19T10:12:39.410Z,101301.47
2022-12-19T10:14:18.917Z,101301.28
2022-12-19T10:20:16.177Z,101304.72
2022-12-19T10:23:00.959Z,101291.66
2022-12-19T10:25:52.669Z,101297.63
2022-12-19T10:28:40.546Z,101285.97
2022-12-19T10:31:22.300Z,101292.13
2022-12-19T10:34:03.647Z,101285.69
2022-12-19T10:39:52.179Z,101286.25
2022-12-19T10:42:35.825Z,101281.72
2022-12-19T10:45:18.905Z,101283.31
2022-12-19T10:47:57.430Z,101265.03
2022-12-19T10:50:31.681Z,101272.59
2022-12-19T10:53:11.675Z,101267.97
2022-12-19T10:55:47.504Z,101274.78
2022-12-19T10:58:25.353Z,101274.97
2022-12-19T11:01:12.012Z,101272.50
2022-12-19T11:03:50.733Z,101277.06
2022-12-19T11:06:51.797Z,101273.63
2022-12-19T11:09:30.549Z,101276.00
2022-12-19T11:15:46.588Z,101269.38
2022-12-19T11:20:46.842Z,101279.09
2022-12-19T11:26:40.690Z,101268.69
2022-12-19T11:29:25.516Z,101267.34
2022-12-19T11:29:46.780Z,101264.88
2022-12-19T11:30:59.590Z,101266.97
2022-12-19T11:32:51.539Z,101250.19
2022-12-19T11:35:37.215Z,101263.38
2022-12-19T11:38:16.016Z,101249.59
2022-12-19T11:40:56.826Z,101259.63
2022-12-19T11:43:45.070Z,101264.56
2022-12-19T11:46:30.512Z,101249.84
2022-12-19T11:49:11.899Z,101252.00
2022-12-19T11:51:53.493Z,101261.34
2022-12-19T11:54:30.771Z,101264.16
2022-12-19T11:57:04.215Z,101256.59
2022-12-19T11:59:41.330Z,101262.25
2022-12-19T12:02:36.495Z,101268.09
2022-12-19T12:05:40.432Z,101253.75
2022-12-19T12:14:25.301Z,101270.06
2022-12-19T12:18:07.471Z,101254.84
2022-12-19T12:27:14.371Z,101259.75
2022-12-19T12:31:11.974Z,101270.09
2022-12-19T12:31:15.425Z,101266.88
2022-12-19T12:31:39.131Z,101241.66
2022-12-19T12:31:49.899Z,101251.34
2022-12-19T12:31:57.583Z,101246.53
2022-12-19T12:37:03.452Z,101242.06
2022-12-19T12:39:33.374Z,101230.38
2022-12-19T12:42:13.926Z,101234.09
2022-12-19T12:44:49.299Z,101221.00
2022-12-19T12:47:25.587Z,101216.75
2022-12-19T12:50:01.750Z,101213.13
2022-12-19T12:52:40.118Z,101218.56
2022-12-19T12:55:19.120Z,101224.72
2022-12-19T12:57:52.201Z,101214.59
2022-12-19T13:00:27.652Z,101217.78
2022-12-19T13:03:08.055Z,101214.81
2022-12-19T13:05:55.019Z,101205.13
2022-12-19T13:08:38.898Z,101213.13
2022-12-19T13:11:36.956Z,101216.63
2022-12-19T13:14:46.553Z,101202.94
2022-12-19T13:17:25.139Z,101196.97
2022-12-19T13:20:16.078Z,101194.38
2022-12-19T13:23:05.786Z,101208.88
2022-12-19T13:25:54.549Z,101202.59
2022-12-19T13:28:42.454Z,101195.78
2022-12-19T13:31:23.439Z,101189.84
2022-12-19T13:34:18.718Z,101178.41
2022-12-19T13:39:50.089Z,101188.75
2022-12-19T13:40:11.179Z,101188.47
2022-12-19T13:43:15.924Z,101177.81
2022-12-19T13:45:52.946Z,101176.84
2022-12-19T13:48:32.927Z,101170.97
2022-12-19T13:51:12.471Z,101167.59
2022-12-19T13:53:45.299Z,101177.47
2022-12-19T13:56:19.316Z,101173.00
2022-12-19T13:58:55.657Z,101174.06
2022-12-19T14:01:30.683Z,101156.75
2022-12-19T14:04:08.184Z,101155.91
2022-12-19T14:06:43.678Z,101154.16
2022-12-19T14:11:32.476Z,101149.50
2022-12-19T14:13:45.861Z,101150.66
2022-12-19T14:15:32.896Z,101143.19
2022-12-19T14:18:44.583Z,101147.34
2022-12-19T14:22:11.804Z,101145.88
2022-12-19T14:24:13.033Z,101139.47
2022-12-19T14:28:22.205Z,101132.44
2022-12-19T14:30:31.046Z,101132.25
2022-12-19T14:33:38.985Z,101131.69
2022-12-19T14:36:11.217Z,101136.94
2022-12-19T14:39:20.588Z,101132.34
2022-12-19T14:42:01.425Z,101133.97
2022-12-19T14:52:25.565Z,101130.34
2022-12-19T14:54:05.221Z,101133.97
2022-12-19T14:54:30.696Z,101129.38
2022-12-19T14:54:34.889Z,101119.38
2022-12-19T14:56:58.438Z,101128.22
2022-12-19T14:59:33.475Z,101138.63
2022-12-19T15:02:28.189Z,101121.91
2022-12-19T15:05:08.605Z,101119.88
2022-12-19T15:07:45.566Z,101109.66
2022-12-19T15:11:05.087Z,101118.19
2022-12-19T15:14:58.436Z,101118.28
2022-12-19T15:16:27.860Z,101108.38
2022-12-19T15:19:02.477Z,101110.06
2022-12-19T15:21:35.257Z,101093.72
2022-12-19T15:24:09.456Z,101087.63
2022-12-19T15:26:53.069Z,101095.28
2022-12-19T15:29:27.900Z,101087.50
2022-12-19T15:32:02.062Z,101087.19
2022-12-19T15:34:40.114Z,101081.34
2022-12-19T15:37:18.211Z,101083.25
2022-12-19T15:39:51.055Z,101086.03
2022-12-19T15:42:25.668Z,101080.28
2022-12-19T15:45:00.940Z,101078.81
2022-12-19T15:47:35.317Z,101075.19
2022-12-19T15:50:18.346Z,101075.41
2022-12-19T15:52:53.331Z,101067.94
2022-12-19T15:55:29.803Z,101070.41
2022-12-19T15:58:07.464Z,101074.94
2022-12-19T16:00:47.569Z,101062.41
2022-12-19T16:03:23.538Z,101062.59
2022-12-19T16:05:57.885Z,101066.47
2022-12-19T16:08:31.519Z,101069.84
2022-12-19T16:11:04.383Z,101066.78
2022-12-19T16:13:37.319Z,101080.41
2022-12-19T16:16:15.727Z,101079.22
2022-12-19T16:18:49.617Z,101082.09
2022-12-19T16:21:33.762Z,101076.88
2022-12-19T16:24:07.985Z,101077.75
2022-12-19T16:26:41.235Z,101097.31
2022-12-19T16:29:19.671Z,101093.06
2022-12-19T16:31:54.741Z,101084.03
2022-12-19T16:34:27.604Z,101073.88
2022-12-19T16:37:00.458Z,101100.06
2022-12-19T16:39:33.384Z,101110.19
2022-12-19T16:42:12.776Z,101107.94
2022-12-19T16:44:47.920Z,101117.84
2022-12-19T16:47:22.172Z,101126.06
2022-12-19T16:49:55.217Z,101115.63
2022-12-19T16:52:28.133Z,101124.34
2022-12-19T16:55:01.029Z,101124.56
2022-12-19T16:57:34.100Z,101124.44
2022-12-19T17:00:10.997Z,101131.16
2022-12-19T17:02:49.035Z,101126.59
2022-12-19T17:05:24.444Z,101123.19
2022-12-19T17:07:58.766Z,101140.41
2022-12-19T17:10:33.967Z,101124.34
2022-12-19T17:13:06.818Z,101126.03
2022-12-19T17:15:39.901Z,101138.59
2022-12-19T17:18:19.259Z,101140.28
2022-12-19T17:20:52.069Z,101134.34
2022-12-19T17:23:26.353Z,101146.69
2022-12-19T17:26:00.639Z,101137.50
2022-12-19T17:28:33.555Z,101136.56
2022-12-19T17:31:11.805Z,101138.81
2022-12-19T17:33:46.402Z,101126.22
2022-12-19T17:36:24.882Z,101148.03
2022-12-19T17:38:59.285Z,101147.88
2022-12-19T17:41:32.406Z,101143.06
2022-12-19T17:44:05.469Z,101147.66
2022-12-19T17:46:39.031Z,101143.19
2022-12-19T17:49:18.488Z,101140.63
2022-12-19T17:51:52.716Z,101150.41
2022-12-19T17:54:26.766Z,101158.19
2022-12-19T17:56:59.840Z,101145.94
2022-12-19T17:59:32.897Z,101144.47
2022-12-19T18:02:12.665Z,101137.63
2022-12-19T18:04:47.431Z,101151.47
2022-12-19T18:07:20.728Z,101145.63
2022-12-19T18:09:53.677Z,101132.66
2022-12-19T18:12:26.647Z,101151.81
2022-12-19T18:14:59.927Z,101159.16
2022-12-19T18:17:32.816Z,101157.97
2022-12-19T18:20:18.808Z,101155.97
2022-12-19T18:22:51.644Z,101158.63
2022-12-19T18:25:26.245Z,101152.88
2022-12-19T18:27:59.610Z,101167.56
2022-12-19T18:30:32.526Z,101148.41
2022-12-19T18:33:06.342Z,101152.03
2022-12-19T18:35:43.157Z,101134.59
2022-12-19T18:38:19.929Z,101140.31
2022-12-19T18:40:52.884Z,101138.81
2022-12-19T18:43:26.112Z,101135.22
2022-12-19T18:45:59.083Z,101138.41
2022-12-19T18:48:34.512Z,101135.72
2022-12-19T18:51:14.669Z,101136.16
2022-12-19T18:53:48.981Z,101133.91
2022-12-19T18:56:22.032Z,101138.41
2022-12-19T18:58:55.118Z,101138.97
2022-12-19T19:01:28.152Z,101138.81
2022-12-19T19:04:01.185Z,101131.72
2022-12-19T19:06:38.179Z,101134.38
2022-12-19T19:09:16.721Z,101138.31
2022-12-19T19:12:15.814Z,101132.75
2022-12-19T19:14:48.699Z,101129.69
2022-12-19T19:17:30.426Z,101127.31
2022-12-19T19:20:03.954Z,101133.91
2022-12-19T19:22:38.421Z,101137.31
2022-12-19T19:25:11.496Z,101156.25
2022-12-19T19:27:44.857Z,101146.47
2022-12-19T19:30:18.489Z,101140.75
2022-12-19T19:32:55.003Z,101128.59
2022-12-19T19:35:28.634Z,101137.94
2022-12-19T19:38:07.421Z,101131.16
2022-12-19T19:40:41.720Z,101141.13
2022-12-19T19:43:14.528Z,101134.84
2022-12-19T19:45:47.771Z,101146.69
2022-12-19T19:48:20.626Z,101138.09
2022-12-19T19:50:53.593Z,101145.91
2022-12-19T19:53:28.956Z,101156.25
2022-12-19T19:56:02.214Z,101153.22
2022-12-19T19:58:35.472Z,101145.13
2022-12-19T20:01:10.779Z,101158.94
2022-12-19T20:03:44.798Z,101150.50
2022-12-19T20:06:19.085Z,101151.97
2022-12-19T20:08:54.503Z,101146.03
2022-12-19T20:11:27.357Z,101150.09
2022-12-19T20:14:00.462Z,101141.59
2022-12-19T20:16:33.711Z,101154.69
2022-12-19T20:19:06.595Z,101154.38
2022-12-19T20:21:39.406Z,101157.97
2022-12-19T20:24:13.810Z,101159.25
2022-12-19T20:26:46.681Z,101154.34
2022-12-19T20:29:20.556Z,101157.00
2022-12-19T20:31:53.509Z,101175.22
2022-12-19T20:34:26.753Z,101180.75
2022-12-19T20:36:59.561Z,101172.38
2022-12-19T20:39:34.351Z,101175.22
2022-12-19T20:42:09.335Z,101174.75
2022-12-19T20:44:42.011Z,101178.38
2022-12-19T20:47:14.980Z,101170.09
2022-12-19T20:49:48.198Z,101165.22
2022-12-19T20:52:21.084Z,101168.84
2022-12-19T20:54:55.342Z,101174.13
2022-12-19T20:57:29.905Z,101154.28
2022-12-19T21:00:02.894Z,101160.25
2022-12-19T21:03:16.770Z,101154.50
2022-12-19T21:05:31.315Z,101155.09
2022-12-19T21:08:04.318Z,101157.25
2022-12-19T21:10:38.502Z,101152.25
2022-12-19T21:13:11.661Z,101168.97
2022-12-19T21:15:44.744Z,101159.16
2022-12-19T21:18:18.041Z,101151.88
2022-12-19T21:20:51.410Z,101160.69
2022-12-19T21:23:25.219Z,101155.91
2022-12-19T21:26:01.715Z,101148.50
2022-12-19T21:28:34.812Z,101156.13
2022-12-19T21:31:14.039Z,101148.56
2022-12-19T21:33:47.716Z,101161.50
2022-12-19T21:36:22.602Z,101154.31
2022-12-19T21:38:57.413Z,101157.94
2022-12-19T21:41:32.378Z,101148.13
2022-12-19T21:44:05.498Z,101164.59
2022-12-19T21:46:38.427Z,101165.25
2022-12-19T21:49:11.282Z,101160.34
2022-12-19T21:51:44.111Z,101150.69
2022-12-19T21:54:16.937Z,101130.56
2022-12-19T21:56:51.426Z,101145.22
2022-12-19T21:59:24.220Z,101147.03
2022-12-19T22:01:57.761Z,101154.25
2022-12-19T22:04:31.296Z,101148.25
2022-12-19T22:07:06.179Z,101150.19
2022-12-19T22:09:38.923Z,101159.94
2022-12-19T22:12:13.718Z,101171.00
2022-12-19T22:14:46.467Z,101167.19
2022-12-19T22:17:19.254Z,101154.59
2022-12-19T22:19:52.131Z,101160.94
2022-12-19T22:22:25.053Z,101158.22
2022-12-19T22:24:57.854Z,101150.16
2022-12-19T22:27:32.035Z,101153.19
2022-12-19T22:30:10.816Z,101147.03
2022-12-19T22:32:44.200Z,101143.09
2022-12-19T22:35:17.517Z,101148.78
2022-12-19T22:37:50.453Z,101130.31
2022-12-19T22:40:23.436Z,101142.91
2022-12-19T22:42:57.665Z,101151.16
2022-12-19T22:45:31.404Z,101151.09
2022-12-19T22:48:04.661Z,101123.00
2022-12-19T22:50:37.626Z,101147.16
2022-12-19T22:53:12.854Z,101139.72
2022-12-19T22:55:45.977Z,101138.44
2022-12-19T22:58:20.170Z,101136.75
2022-12-19T23:00:53.230Z,101132.78
2022-12-19T23:03:26.268Z,101138.59
2022-12-19T23:06:02.206Z,101129.34
2022-12-19T23:08:36.011Z,101135.94
2022-12-19T23:11:11.783Z,101133.69
2022-12-19T23:13:47.199Z,101129.91
2022-12-19T23:16:20.299Z,101131.34
2022-12-19T23:18:53.151Z,101136.63
2022-12-19T23:21:26.843Z,101124.88
2022-12-19T23:24:00.316Z,101121.88
2022-12-19T23:26:35.398Z,101108.63
2022-12-19T23:29:11.605Z,101104.75
2022-12-19T23:31:46.602Z,101092.88
2022-12-19T23:34:19.610Z,101100.53
2022-12-19T23:39:45.339Z,101083.94
2022-12-19T23:42:18.174Z,101079.81
2022-12-19T23:44:52.428Z,101073.75
2022-12-19T23:47:25.314Z,101075.69
2022-12-19T23:49:58.123Z,101071.63
2022-12-19T23:52:30.936Z,101080.09
2022-12-19T23:55:03.815Z,101063.22
2022-12-19T23:57:36.736Z,101083.25
